Sea Dolphin C — V7XL9 — position and weather

sailwx.info

Track history (hours):
 
Tides and Currents Weather Stations Pressure Air Temp Water Temp Dewpoint Dewpoint Depression Visibility Wind Speed Wind Dir Waves Ship Positions

Sea Dolphin C

Last reported at 2017-Jul-07 22:10 UTC. Time now 2017-Aug-23 17:29 UTC.
Position S 28°28' E 032°37'.
Warning: this ship's position is 46 days out of date.

Length 181 m; draft 8.2 m.

Type: Cargo ship. MMSI: 538004513.

Date/timePositionNaut miles runAvg speedWind from/ knotsBaromVisibWave heightAir tempDewpointWater temp
2017-Jul-07 22:10S 28°28' E 032°37'1 8.7
2017-Jul-07 22:00S 28°29' E 032°36'6 8.5
2017-Jul-07 21:21S 28°34' E 032°33'9 9.1
2017-Jul-07 20:18S 28°41' E 032°26'311.4
2017-Jul-07 20:00S 28°44' E 032°24'611.5
2017-Jul-07 19:30S 28°48' E 032°20'611.3
2017-Jul-07 19:00S 28°53' E 032°16'511.0
2017-Jul-07 18:30S 28°58' E 032°13'510.6
2017-Jul-07 18:00S 29°02' E 032°10'510.2
2017-Jul-07 17:30S 29°06' E 032°06'510.7
2017-Jul-07 17:00S 29°09' E 032°01'611.1
2017-Jul-07 16:30S 29°13' E 031°56'611.1
2017-Jul-07 16:00S 29°16' E 031°51'510.9
2017-Jul-07 15:30S 29°20' E 031°46'611.2
2017-Jul-07 15:00S 29°24' E 031°41'1111.3
2017-Jul-07 14:00S 29°31' E 031°32'611.5
2017-Jul-07 13:30S 29°35' E 031°27'611.8
2017-Jul-07 13:00S 29°39' E 031°22'611.7
2017-Jul-07 12:30S 29°43' E 031°17'611.6
2017-Jul-07 12:00S 29°47' E 031°12'611.6
2017-Jul-07 11:30S 29°50' E 031°06'5 9.1
2017-Jul-07 11:00S 29°53' E 031°02'2 4.5
2017-Jul-07 10:30S 29°53' E 030°60'0 0.1
2017-Jul-07 10:00S 29°53' E 030°60'0 0.0
2017-Jul-07 09:30S 29°53' E 030°60'0 0.0
2017-Jul-07 09:00S 29°53' E 030°60'0 0.0
2017-Jul-07 08:30S 29°53' E 030°60'0 0.0
2017-Jul-07 08:00S 29°53' E 030°60'0 0.0
2017-Jul-07 07:30S 29°53' E 030°60'0 0.0
2017-Jul-07 07:00S 29°53' E 030°60'0 0.0
2017-Jul-07 06:30S 29°53' E 030°60'0 0.0
2017-Jul-07 06:00S 29°53' E 030°60'0 0.0
2017-Jul-07 05:30S 29°53' E 030°60'0 0.0
2017-Jul-07 05:00S 29°53' E 030°60'0 0.0
2017-Jul-07 04:30S 29°53' E 030°60'0 0.0
2017-Jul-07 04:00S 29°53' E 030°60'0 0.0
2017-Jul-07 03:30S 29°53' E 030°60'0 0.0
2017-Jul-07 02:57S 29°53' E 030°60'0 0.0
2017-Jul-07 02:30S 29°53' E 030°60'0 0.0
2017-Jul-07 01:57S 29°53' E 030°60'0 0.0
2017-Jul-07 01:30S 29°53' E 030°60'0 0.0
2017-Jul-07 01:00S 29°53' E 030°60'0 0.0
2017-Jul-07 00:30S 29°53' E 030°60'0 0.0
2017-Jul-07 00:00S 29°53' E 030°60'0 0.0
2017-Jul-06 23:30S 29°53' E 030°60'0 0.0
2017-Jul-06 23:15S 29°53' E 030°60'0 0.0
2017-Jul-05 08:30S 29°53' E 030°60'0 0.0
2017-Jul-05 08:00S 29°53' E 030°60'0 0.0
2017-Jul-05 07:30S 29°53' E 030°60'0 0.0
2017-Jul-05 07:00S 29°53' E 030°60'0 0.0
2017-Jul-05 06:30S 29°53' E 030°60'0 0.0
2017-Jul-05 06:00S 29°53' E 030°60'0 0.0
2017-Jul-05 05:27S 29°53' E 030°60'0 0.0
2017-Jul-05 05:00S 29°53' E 030°60'0 0.0
2017-Jul-05 04:30S 29°53' E 030°60'0 0.0
2017-Jul-04 19:09S 29°53' E 030°60'0 0.0
2017-Jul-04 19:00S 29°53' E 030°60'0 0.0
2017-Jul-04 18:30S 29°53' E 030°60'0 0.0
2017-Jul-04 18:00S 29°53' E 030°60'0 0.0
2017-Jul-04 17:30S 29°53' E 030°60'0 0.0
2017-Jul-04 17:00S 29°53' E 030°60'0 0.0
2017-Jul-04 16:30S 29°53' E 030°60'0 0.0
2017-Jul-04 16:00S 29°53' E 030°60'0 0.0
2017-Jul-04 15:30S 29°53' E 030°60'0 0.0
2017-Jul-04 15:00S 29°53' E 030°60'0 0.0
2017-Jul-04 13:57S 29°53' E 030°60'0 0.0
2017-Jul-04 13:30S 29°53' E 030°60'0 0.0
2017-Jul-04 13:00S 29°53' E 030°60'0 0.0
2017-Jul-04 12:27S 29°53' E 030°60'0 0.0
2017-Jul-04 11:57S 29°53' E 030°60'0 0.0
2017-Jul-04 11:30S 29°53' E 030°60'0 0.0
2017-Jul-04 10:51S 29°53' E 030°60'0 0.0
2017-Jul-04 10:30S 29°53' E 030°60'0 0.0
2017-Jul-04 10:00S 29°53' E 030°60'0 0.0
2017-Jul-04 09:30S 29°53' E 030°60'0 0.0
2017-Jul-04 09:00S 29°53' E 030°60'0 0.0
2017-Jul-04 08:27S 29°53' E 030°60'0 0.0
2017-Jul-04 08:00S 29°53' E 030°60'0 0.0
2017-Jul-04 07:30S 29°53' E 030°60'0 0.0
2017-Jul-04 07:00S 29°53' E 030°60'0 0.0
2017-Jul-04 06:30S 29°53' E 030°60'0 0.0
2017-Jul-04 06:00S 29°53' E 030°60'0 0.0
2017-Jul-04 05:30S 29°53' E 030°60'0 0.0
2017-Jul-04 05:00S 29°53' E 030°60'0 0.0
2017-Jul-04 04:30S 29°53' E 030°60'0 0.0
2017-Jul-04 04:00S 29°53' E 030°60'0 0.0
2017-Jul-04 03:30S 29°53' E 030°60'0 0.0
2017-Jul-04 02:57S 29°53' E 030°60'0 0.0
2017-Jul-04 02:30S 29°53' E 030°60'0 0.0
2017-Jul-04 02:00S 29°53' E 030°60'0 0.0
2017-Jul-04 01:30S 29°53' E 030°60'0 0.0
2017-Jul-04 00:57S 29°53' E 030°60'0 0.0
2017-Jul-04 00:30S 29°53' E 030°60'0 0.0
2017-Jul-03 23:57S 29°53' E 030°60'0 0.0
2017-Jul-03 23:27S 29°53' E 030°60'0 0.0
2017-Jul-03 22:57S 29°53' E 030°60'0 0.0
2017-Jul-03 22:30S 29°53' E 030°60'0 0.0
2017-Jul-03 22:00S 29°53' E 030°60'0 0.0
2017-Jul-03 21:30S 29°53' E 030°60'0 0.0
2017-Jul-03 21:00S 29°53' E 030°60'0 0.0
2017-Jul-03 20:30S 29°53' E 030°60'0 0.0
2017-Jul-03 19:54S 29°53' E 030°60'0 0.0
2017-Jul-03 19:30S 29°53' E 030°60'0 0.0
2017-Jul-03 19:00S 29°53' E 030°60'0 0.0
2017-Jul-03 18:30S 29°53' E 030°60'0 0.0
2017-Jul-03 17:57S 29°53' E 030°60'0 0.0
2017-Jul-03 17:30S 29°53' E 030°60'0 0.0
2017-Jul-03 17:00S 29°53' E 030°60'0 0.0
2017-Jul-03 16:30S 29°53' E 030°60'0 0.0
2017-Jul-03 16:00S 29°53' E 030°60'0 0.0
2017-Jul-03 15:30S 29°53' E 030°60'0 0.0
2017-Jul-03 15:00S 29°53' E 030°60'0 0.0
2017-Jul-03 14:00S 29°53' E 030°60'0 0.0
2017-Jul-03 13:30S 29°53' E 030°60'0 0.0
2017-Jul-03 13:00S 29°53' E 030°60'0 0.0
2017-Jul-03 12:30S 29°53' E 030°60'0 0.0
2017-Jul-03 12:00S 29°53' E 030°60'0 0.0
2017-Jul-03 11:30S 29°53' E 030°60'0 0.0
2017-Jul-03 11:00S 29°53' E 030°60'0 0.0
2017-Jul-03 10:30S 29°53' E 030°60'0 0.0
2017-Jul-03 10:00S 29°53' E 030°60'0 0.0
2017-Jul-03 09:27S 29°53' E 030°60'0 0.0
2017-Jul-03 09:00S 29°53' E 030°60'0 0.0
2017-Jul-03 08:30S 29°53' E 030°60'0 0.0
2017-Jul-03 08:00S 29°53' E 030°60'0 0.0
2017-Jul-03 07:30S 29°53' E 030°60'0 0.0
2017-Jul-03 07:00S 29°53' E 030°60'0 0.0
2017-Jul-03 06:30S 29°53' E 030°60'0 0.0
2017-Jul-03 06:00S 29°53' E 030°60'0 0.0
2017-Jul-03 05:30S 29°53' E 030°60'0 0.0
2017-Jul-03 05:00S 29°53' E 030°60'0 0.0
2017-Jul-03 04:30S 29°53' E 030°60'0 0.0
2017-Jul-03 04:00S 29°53' E 030°60'0 0.0
2017-Jul-03 03:30S 29°53' E 030°60'0 0.0
2017-Jul-03 02:51S 29°53' E 030°60'0 0.0
2017-Jul-03 02:30S 29°53' E 030°60'0 0.0
2017-Jul-03 02:00S 29°53' E 030°60'0 0.0
2017-Jul-03 01:30S 29°53' E 030°60'0 0.0
2017-Jul-03 01:00S 29°53' E 030°60'0 0.0
2017-Jul-03 00:30S 29°53' E 030°60'0 0.0
2017-Jul-03 00:00S 29°53' E 030°60'0 0.0
2017-Jul-02 23:30S 29°53' E 030°60'0 0.0
2017-Jul-02 23:00S 29°53' E 030°60'0 0.0
2017-Jul-02 22:30S 29°53' E 030°60'0 0.0
2017-Jul-02 22:00S 29°53' E 030°60'0 0.0
2017-Jul-02 21:30S 29°53' E 030°60'0 0.0
2017-Jul-02 21:00S 29°53' E 030°60'0 0.0
2017-Jul-02 20:27S 29°53' E 030°60'0 0.0
2017-Jul-02 20:00S 29°53' E 030°60'0 0.0
2017-Jul-02 19:24S 29°53' E 030°60'0 0.0
2017-Jul-02 19:00S 29°53' E 030°60'0 0.0
2017-Jul-02 18:30S 29°53' E 030°60'0 0.0
2017-Jul-02 18:00S 29°53' E 030°60'0 0.0
2017-Jul-02 17:30S 29°53' E 030°60'0 0.0
2017-Jul-02 17:00S 29°53' E 030°60'0 0.0
2017-Jul-02 16:30S 29°53' E 030°60'0 0.0
2017-Jul-02 16:00S 29°53' E 030°60'0 0.0
2017-Jul-02 15:30S 29°53' E 030°60'0 0.0
2017-Jul-02 15:00S 29°53' E 030°60'0 0.0
2017-Jul-02 14:00S 29°53' E 030°60'0 0.0
2017-Jul-02 13:30S 29°53' E 030°60'0 0.0
2017-Jul-02 13:00S 29°53' E 030°60'0 0.0
2017-Jul-02 12:30S 29°53' E 030°60'0 0.0
2017-Jul-02 12:00S 29°53' E 030°60'0 0.0
2017-Jul-02 11:27S 29°53' E 030°60'0 0.0
2017-Jul-02 11:00S 29°53' E 030°60'0 0.0
2017-Jul-02 10:30S 29°53' E 030°60'0 0.0
2017-Jul-02 09:57S 29°53' E 030°60'0 0.0
2017-Jul-02 09:30S 29°53' E 030°60'0 0.0
2017-Jul-02 09:00S 29°53' E 030°60'0 0.0
2017-Jul-02 08:30S 29°53' E 030°60'0 0.0
2017-Jul-02 07:57S 29°53' E 030°60'0 0.0
2017-Jul-02 07:30S 29°53' E 030°60'0 0.0
2017-Jul-02 07:00S 29°53' E 030°60'0 0.0
2017-Jul-02 06:27S 29°53' E 030°60'0 0.0
2017-Jul-02 06:00S 29°53' E 030°60'0 0.0
2017-Jul-02 05:30S 29°53' E 030°60'0 0.0
2017-Jul-02 05:00S 29°53' E 030°60'0 0.0
2017-Jul-02 04:30S 29°53' E 030°60'0 0.0
2017-Jul-02 04:00S 29°53' E 030°60'0 0.0
2017-Jul-02 03:27S 29°53' E 030°60'0 0.0
2017-Jul-02 03:00S 29°53' E 030°60'0 0.0
2017-Jul-02 02:30S 29°53' E 030°60'0 0.0
2017-Jul-02 01:57S 29°53' E 030°60'0 0.0
2017-Jul-02 01:30S 29°53' E 030°60'0 0.0
2017-Jul-02 00:57S 29°53' E 030°60'0 0.0
2017-Jul-02 00:30S 29°53' E 030°60'0 0.0
2017-Jul-02 00:00S 29°53' E 030°60'0 0.0
2017-Jul-01 23:30S 29°53' E 030°60'0 0.0
2017-Jul-01 23:00S 29°53' E 030°60'0 0.0
2017-Jul-01 22:30S 29°53' E 030°60'0 0.0
2017-Jul-01 22:00S 29°53' E 030°60'0 0.0
2017-Jul-01 21:27S 29°53' E 030°60'0 0.0
2017-Jul-01 21:00S 29°53' E 030°60'0 0.0
2017-Jul-01 20:30S 29°53' E 030°60'0 0.0
2017-Jul-01 20:00S 29°53' E 030°60'0 0.0
2017-Jul-01 19:27S 29°53' E 030°60'0 0.0
2017-Jul-01 18:57S 29°53' E 030°60'0 0.0
2017-Jul-01 18:30S 29°53' E 030°60'0 0.0
2017-Jul-01 17:57S 29°53' E 030°60'0 0.0
2017-Jul-01 17:30S 29°53' E 030°60'0 0.0
2017-Jul-01 17:00S 29°53' E 030°60'0 0.0
2017-Jul-01 16:30S 29°53' E 030°60'0 0.0
2017-Jul-01 16:00S 29°53' E 030°60'0 0.0
2017-Jul-01 15:30S 29°53' E 030°60'0 0.0
2017-Jul-01 15:00S 29°53' E 030°60'0 0.0
2017-Jul-01 14:00S 29°53' E 030°60'0 0.0
2017-Jul-01 13:30S 29°53' E 030°60'0 0.0
2017-Jul-01 13:00S 29°53' E 030°60'0 0.0
2017-Jul-01 12:30S 29°53' E 030°60'0 0.0
2017-Jul-01 12:00S 29°53' E 030°60'0 0.0
2017-Jul-01 11:30S 29°53' E 030°60'0 0.0
2017-Jul-01 10:57S 29°53' E 030°60'0 0.0
2017-Jul-01 10:30S 29°53' E 030°60'0 0.0
2017-Jul-01 09:57S 29°53' E 030°60'0 0.0
2017-Jul-01 09:30S 29°53' E 030°60'0 0.0
2017-Jul-01 09:00S 29°53' E 030°60'0 0.0
2017-Jul-01 08:30S 29°53' E 030°60'0 0.0
2017-Jul-01 08:00S 29°53' E 030°60'0 0.0
2017-Jul-01 07:30S 29°53' E 030°60'0 0.0
2017-Jul-01 07:00S 29°53' E 030°60'0 0.0
2017-Jul-01 05:54S 29°53' E 030°60'0 0.0
2017-Jul-01 05:30S 29°53' E 030°60'0 0.0
2017-Jul-01 05:00S 29°53' E 030°60'0 0.0
2017-Jul-01 04:30S 29°53' E 030°60'0 0.0
2017-Jul-01 04:00S 29°53' E 030°60'0 0.0
2017-Jul-01 03:30S 29°53' E 030°60'0 0.0
2017-Jul-01 03:00S 29°53' E 030°60'0 0.0
2017-Jul-01 02:27S 29°53' E 030°60'0 0.0
2017-Jul-01 01:57S 29°53' E 030°60'0 0.0
2017-Jul-01 01:30S 29°53' E 030°60'0 0.0
2017-Jul-01 01:00S 29°53' E 030°60'0 0.0
2017-Jul-01 00:27S 29°53' E 030°60'0 0.0
2017-Jul-01 00:00S 29°53' E 030°60'0 0.0
2017-Jun-30 23:30S 29°53' E 030°60'0 0.0
2017-Jun-30 23:00S 29°53' E 030°60'0 0.0
2017-Jun-30 22:27S 29°53' E 030°60'0 0.0
2017-Jun-30 22:00S 29°53' E 030°60'0 0.0
2017-Jun-30 21:30S 29°53' E 030°60'0 0.0
2017-Jun-30 21:00S 29°53' E 030°60'0 0.0
2017-Jun-30 20:30S 29°53' E 030°60'0 0.0
2017-Jun-30 20:00S 29°53' E 030°60'0 0.0
2017-Jun-30 19:30S 29°53' E 030°60'0 0.0
2017-Jun-30 18:57S 29°53' E 030°60'0 0.0
2017-Jun-30 18:30S 29°53' E 030°60'0 0.0
2017-Jun-30 18:00S 29°53' E 030°60'0 0.0
2017-Jun-30 17:30S 29°53' E 030°60'0 0.0
2017-Jun-30 17:00S 29°53' E 030°60'0 0.0
2017-Jun-30 16:30S 29°53' E 030°60'0 0.0
2017-Jun-30 16:00S 29°53' E 030°60'0 0.0
2017-Jun-30 15:30S 29°53' E 030°60'0 0.0
2017-Jun-30 15:00S 29°53' E 030°60'0 0.0
2017-Jun-30 14:24S 29°53' E 030°60'0 0.0
2017-Jun-30 14:00S 29°53' E 030°60'0 0.0
2017-Jun-30 13:27S 29°53' E 030°60'0 0.0
2017-Jun-30 13:00S 29°53' E 030°60'0 0.0
2017-Jun-30 12:30S 29°53' E 030°60'0 0.0
2017-Jun-30 12:00S 29°53' E 030°60'0 0.0
2017-Jun-30 11:30S 29°53' E 030°60'0 0.0
2017-Jun-30 11:00S 29°53' E 030°60'0 0.0
2017-Jun-30 10:30S 29°53' E 030°60'0 0.0
2017-Jun-30 10:00S 29°53' E 030°60'0 0.0
2017-Jun-30 09:30S 29°53' E 030°60'0 0.0
2017-Jun-30 09:00S 29°53' E 030°60'0 0.0
2017-Jun-30 08:27S 29°53' E 030°60'0 0.0
2017-Jun-30 08:00S 29°53' E 030°60'0 0.0
2017-Jun-30 07:30S 29°53' E 030°60'0 0.0
2017-Jun-30 07:00S 29°53' E 030°60'0 0.0
2017-Jun-30 06:30S 29°53' E 030°60'0 0.0
2017-Jun-30 06:00S 29°53' E 030°60'0 0.0
2017-Jun-30 05:30S 29°53' E 030°60'0 0.0
2017-Jun-30 05:00S 29°53' E 030°60'0 0.0
2017-Jun-30 04:30S 29°53' E 030°60'0 0.0
2017-Jun-30 04:00S 29°53' E 030°60'0 0.0
2017-Jun-30 03:30S 29°53' E 030°60'0 0.0
2017-Jun-30 02:57S 29°53' E 030°60'0 0.0
2017-Jun-30 02:30S 29°53' E 030°60'0 0.0
2017-Jun-30 02:00S 29°53' E 030°60'0 0.0
2017-Jun-30 01:30S 29°53' E 030°60'0 0.0
2017-Jun-30 01:00S 29°53' E 030°60'0 0.0
2017-Jun-30 00:30S 29°53' E 030°60'0 0.0
2017-Jun-29 23:54S 29°53' E 030°60'0 0.0
2017-Jun-29 23:30S 29°53' E 030°60'0 0.0
2017-Jun-29 23:00S 29°53' E 030°60'0 0.0
2017-Jun-29 22:30S 29°53' E 030°60'0 0.0
2017-Jun-29 22:00S 29°53' E 030°60'0 0.0
2017-Jun-29 21:30S 29°53' E 030°60'0 0.0
2017-Jun-29 21:00S 29°53' E 030°60'0 0.0
2017-Jun-29 20:24S 29°53' E 030°60'0 0.0
2017-Jun-29 20:00S 29°53' E 030°60'0 0.0
2017-Jun-29 19:30S 29°53' E 030°60'0 0.0
2017-Jun-29 18:57S 29°53' E 030°60'0 0.0
2017-Jun-29 18:30S 29°53' E 030°60'0 0.0
2017-Jun-29 18:00S 29°53' E 030°60'0 0.0
2017-Jun-29 17:30S 29°53' E 030°60'0 0.0
2017-Jun-29 17:00S 29°53' E 030°60'0 0.0
2017-Jun-29 16:30S 29°53' E 030°60'0 0.0
2017-Jun-29 16:00S 29°53' E 030°60'0 0.0
2017-Jun-29 15:30S 29°53' E 030°60'0 0.0
2017-Jun-29 15:00S 29°53' E 030°60'0 0.0
2017-Jun-29 14:30S 29°53' E 030°60'0 0.0
2017-Jun-29 13:30S 29°53' E 030°60'0 0.0
2017-Jun-29 13:00S 29°53' E 030°60'0 0.0
2017-Jun-29 12:27S 29°53' E 030°60'0 0.0
2017-Jun-29 12:00S 29°53' E 030°60'0 0.0
2017-Jun-29 11:30S 29°53' E 030°60'0 0.0
2017-Jun-29 11:00S 29°53' E 030°60'0 0.0
2017-Jun-29 10:30S 29°53' E 030°60'0 0.0
2017-Jun-29 10:00S 29°53' E 030°60'0 0.0
2017-Jun-29 09:30S 29°53' E 030°60'0 0.0
2017-Jun-29 08:57S 29°53' E 030°60'0 0.0
2017-Jun-29 08:30S 29°53' E 030°60'0 0.0
2017-Jun-29 08:00S 29°53' E 030°60'0 0.0
2017-Jun-29 07:30S 29°53' E 030°60'0 0.0
2017-Jun-29 07:00S 29°53' E 030°60'0 0.0
2017-Jun-29 06:30S 29°53' E 030°60'0 0.0
2017-Jun-29 06:00S 29°53' E 030°60'0 0.0
2017-Jun-29 05:30S 29°53' E 030°60'0 0.0
2017-Jun-29 05:00S 29°53' E 030°60'0 0.0
2017-Jun-29 04:30S 29°53' E 030°60'0 0.0
2017-Jun-29 04:00S 29°53' E 030°60'0 0.0
2017-Jun-29 03:30S 29°53' E 030°60'0 0.0
2017-Jun-29 03:00S 29°53' E 030°60'0 0.0
2017-Jun-29 02:27S 29°53' E 030°60'0 0.0
2017-Jun-29 02:00S 29°53' E 030°60'0 0.0
2017-Jun-29 01:30S 29°53' E 030°60'0 0.0
2017-Jun-29 01:00S 29°53' E 030°60'0 0.0
2017-Jun-29 00:30S 29°53' E 030°60'0 0.0
2017-Jun-29 00:00S 29°53' E 030°60'0 0.0
2017-Jun-28 23:30S 29°53' E 030°60'0 0.0
2017-Jun-28 23:00S 29°53' E 030°60'0 0.0
2017-Jun-28 22:30S 29°53' E 030°60'0 0.0
2017-Jun-28 22:00S 29°53' E 030°60'0 0.0
2017-Jun-28 21:30S 29°53' E 030°60'0 0.0
2017-Jun-28 21:00S 29°53' E 030°60'0 0.0
2017-Jun-28 20:30S 29°53' E 030°60'0 0.0
2017-Jun-28 19:57S 29°53' E 030°60'0 0.0
2017-Jun-28 19:30S 29°53' E 030°60'0 0.0
2017-Jun-28 19:00S 29°53' E 030°60'0 0.0
2017-Jun-28 18:30S 29°53' E 030°60'0 0.0
2017-Jun-28 17:57S 29°53' E 030°60'0 0.0
2017-Jun-28 17:27S 29°53' E 030°60'0 0.0
2017-Jun-28 17:00S 29°53' E 030°60'0 0.0
2017-Jun-28 16:30S 29°53' E 030°60'0 0.0
2017-Jun-28 16:00S 29°53' E 030°60'0 0.0
2017-Jun-28 15:28S 29°53' E 030°60'0 0.0
2017-Jun-28 15:00S 29°53' E 030°60'0 0.0
2017-Jun-28 14:00S 29°53' E 030°60'0 0.0
2017-Jun-28 13:30S 29°53' E 030°60'0 0.0
2017-Jun-28 13:00S 29°53' E 030°60'0 0.0
2017-Jun-28 12:30S 29°53' E 030°60'0 0.0
2017-Jun-28 12:00S 29°53' E 030°60'0 0.0
2017-Jun-28 11:30S 29°53' E 030°60'0 0.0
2017-Jun-28 11:00S 29°53' E 030°60'0 0.0
2017-Jun-28 10:30S 29°53' E 030°60'0 0.0
2017-Jun-28 09:57S 29°53' E 030°60'0 0.0
2017-Jun-28 09:30S 29°53' E 030°60'0 0.0
2017-Jun-28 09:00S 29°53' E 030°60'0 0.0
2017-Jun-28 08:30S 29°53' E 030°60'0 0.0
2017-Jun-28 08:00S 29°53' E 030°60'0 0.0
2017-Jun-28 07:30S 29°53' E 030°60'0 0.0
2017-Jun-28 07:00S 29°53' E 030°60'0 0.0
2017-Jun-28 06:30S 29°53' E 030°60'0 0.0
2017-Jun-28 06:00S 29°53' E 030°60'0 0.0
2017-Jun-28 05:30S 29°53' E 030°60'0 0.0
2017-Jun-28 05:00S 29°53' E 030°60'0 0.0
2017-Jun-28 04:30S 29°53' E 030°60'  
Track history (hours):
 
Tides and Currents Weather Stations Pressure Air Temp Water Temp Dewpoint Dewpoint Depression Visibility Wind Speed Wind Dir Waves Ship Positions

Sea Dolphin C

Last reported at 2017-Jul-07 22:10 UTC. Time now 2017-Aug-23 17:29 UTC.
Position S 28°28' E 032°37'.
Warning: this ship's position is 46 days out of date.

Length 181 m; draft 8.2 m.

Type: Cargo ship. MMSI: 538004513.

Date/timePositionNaut miles runAvg speedWind from/ knotsBaromVisibWave heightAir tempDewpointWater temp
2017-Jul-07 22:10S 28°28' E 032°37'1 8.7
2017-Jul-07 22:00S 28°29' E 032°36'6 8.5
2017-Jul-07 21:21S 28°34' E 032°33'9 9.1
2017-Jul-07 20:18S 28°41' E 032°26'311.4
2017-Jul-07 20:00S 28°44' E 032°24'611.5
2017-Jul-07 19:30S 28°48' E 032°20'611.3
2017-Jul-07 19:00S 28°53' E 032°16'511.0
2017-Jul-07 18:30S 28°58' E 032°13'510.6
2017-Jul-07 18:00S 29°02' E 032°10'510.2
2017-Jul-07 17:30S 29°06' E 032°06'510.7
2017-Jul-07 17:00S 29°09' E 032°01'611.1
2017-Jul-07 16:30S 29°13' E 031°56'611.1
2017-Jul-07 16:00S 29°16' E 031°51'510.9
2017-Jul-07 15:30S 29°20' E 031°46'611.2
2017-Jul-07 15:00S 29°24' E 031°41'1111.3
2017-Jul-07 14:00S 29°31' E 031°32'611.5
2017-Jul-07 13:30S 29°35' E 031°27'611.8
2017-Jul-07 13:00S 29°39' E 031°22'611.7
2017-Jul-07 12:30S 29°43' E 031°17'611.6
2017-Jul-07 12:00S 29°47' E 031°12'611.6
2017-Jul-07 11:30S 29°50' E 031°06'5 9.1
2017-Jul-07 11:00S 29°53' E 031°02'2 4.5
2017-Jul-07 10:30S 29°53' E 030°60'0 0.1
2017-Jul-07 10:00S 29°53' E 030°60'0 0.0
2017-Jul-07 09:30S 29°53' E 030°60'0 0.0
2017-Jul-07 09:00S 29°53' E 030°60'0 0.0
2017-Jul-07 08:30S 29°53' E 030°60'0 0.0
2017-Jul-07 08:00S 29°53' E 030°60'0 0.0
2017-Jul-07 07:30S 29°53' E 030°60'0 0.0
2017-Jul-07 07:00S 29°53' E 030°60'0 0.0
2017-Jul-07 06:30S 29°53' E 030°60'0 0.0
2017-Jul-07 06:00S 29°53' E 030°60'0 0.0
2017-Jul-07 05:30S 29°53' E 030°60'0 0.0
2017-Jul-07 05:00S 29°53' E 030°60'0 0.0
2017-Jul-07 04:30S 29°53' E 030°60'0 0.0
2017-Jul-07 04:00S 29°53' E 030°60'0 0.0
2017-Jul-07 03:30S 29°53' E 030°60'0 0.0
2017-Jul-07 02:57S 29°53' E 030°60'0 0.0
2017-Jul-07 02:30S 29°53' E 030°60'0 0.0
2017-Jul-07 01:57S 29°53' E 030°60'0 0.0
2017-Jul-07 01:30S 29°53' E 030°60'0 0.0
2017-Jul-07 01:00S 29°53' E 030°60'0 0.0
2017-Jul-07 00:30S 29°53' E 030°60'0 0.0
2017-Jul-07 00:00S 29°53' E 030°60'0 0.0
2017-Jul-06 23:30S 29°53' E 030°60'0 0.0
2017-Jul-06 23:15S 29°53' E 030°60'0 0.0
2017-Jul-05 08:30S 29°53' E 030°60'0 0.0
2017-Jul-05 08:00S 29°53' E 030°60'0 0.0
2017-Jul-05 07:30S 29°53' E 030°60'0 0.0
2017-Jul-05 07:00S 29°53' E 030°60'0 0.0
2017-Jul-05 06:30S 29°53' E 030°60'0 0.0
2017-Jul-05 06:00S 29°53' E 030°60'0 0.0
2017-Jul-05 05:27S 29°53' E 030°60'0 0.0
2017-Jul-05 05:00S 29°53' E 030°60'0 0.0
2017-Jul-05 04:30S 29°53' E 030°60'0 0.0
2017-Jul-04 19:09S 29°53' E 030°60'0 0.0
2017-Jul-04 19:00S 29°53' E 030°60'0 0.0
2017-Jul-04 18:30S 29°53' E 030°60'0 0.0
2017-Jul-04 18:00S 29°53' E 030°60'0 0.0
2017-Jul-04 17:30S 29°53' E 030°60'0 0.0
2017-Jul-04 17:00S 29°53' E 030°60'0 0.0
2017-Jul-04 16:30S 29°53' E 030°60'0 0.0
2017-Jul-04 16:00S 29°53' E 030°60'0 0.0
2017-Jul-04 15:30S 29°53' E 030°60'0 0.0
2017-Jul-04 15:00S 29°53' E 030°60'0 0.0
2017-Jul-04 13:57S 29°53' E 030°60'0 0.0
2017-Jul-04 13:30S 29°53' E 030°60'0 0.0
2017-Jul-04 13:00S 29°53' E 030°60'0 0.0
2017-Jul-04 12:27S 29°53' E 030°60'0 0.0
2017-Jul-04 11:57S 29°53' E 030°60'0 0.0
2017-Jul-04 11:30S 29°53' E 030°60'0 0.0
2017-Jul-04 10:51S 29°53' E 030°60'0 0.0
2017-Jul-04 10:30S 29°53' E 030°60'0 0.0
2017-Jul-04 10:00S 29°53' E 030°60'0 0.0
2017-Jul-04 09:30S 29°53' E 030°60'0 0.0
2017-Jul-04 09:00S 29°53' E 030°60'0 0.0
2017-Jul-04 08:27S 29°53' E 030°60'0 0.0
2017-Jul-04 08:00S 29°53' E 030°60'0 0.0
2017-Jul-04 07:30S 29°53' E 030°60'0 0.0
2017-Jul-04 07:00S 29°53' E 030°60'0 0.0
2017-Jul-04 06:30S 29°53' E 030°60'0 0.0
2017-Jul-04 06:00S 29°53' E 030°60'0 0.0
2017-Jul-04 05:30S 29°53' E 030°60'0 0.0
2017-Jul-04 05:00S 29°53' E 030°60'0 0.0
2017-Jul-04 04:30S 29°53' E 030°60'0 0.0
2017-Jul-04 04:00S 29°53' E 030°60'0 0.0
2017-Jul-04 03:30S 29°53' E 030°60'0 0.0
2017-Jul-04 02:57S 29°53' E 030°60'0 0.0
2017-Jul-04 02:30S 29°53' E 030°60'0 0.0
2017-Jul-04 02:00S 29°53' E 030°60'0 0.0
2017-Jul-04 01:30S 29°53' E 030°60'0 0.0
2017-Jul-04 00:57S 29°53' E 030°60'0 0.0
2017-Jul-04 00:30S 29°53' E 030°60'0 0.0
2017-Jul-03 23:57S 29°53' E 030°60'0 0.0
2017-Jul-03 23:27S 29°53' E 030°60'0 0.0
2017-Jul-03 22:57S 29°53' E 030°60'0 0.0
2017-Jul-03 22:30S 29°53' E 030°60'0 0.0
2017-Jul-03 22:00S 29°53' E 030°60'0 0.0
2017-Jul-03 21:30S 29°53' E 030°60'0 0.0
2017-Jul-03 21:00S 29°53' E 030°60'0 0.0
2017-Jul-03 20:30S 29°53' E 030°60'0 0.0
2017-Jul-03 19:54S 29°53' E 030°60'0 0.0
2017-Jul-03 19:30S 29°53' E 030°60'0 0.0
2017-Jul-03 19:00S 29°53' E 030°60'0 0.0
2017-Jul-03 18:30S 29°53' E 030°60'0 0.0
2017-Jul-03 17:57S 29°53' E 030°60'0 0.0
2017-Jul-03 17:30S 29°53' E 030°60'0 0.0
2017-Jul-03 17:00S 29°53' E 030°60'0 0.0
2017-Jul-03 16:30S 29°53' E 030°60'0 0.0
2017-Jul-03 16:00S 29°53' E 030°60'0 0.0
2017-Jul-03 15:30S 29°53' E 030°60'0 0.0
2017-Jul-03 15:00S 29°53' E 030°60'0 0.0
2017-Jul-03 14:00S 29°53' E 030°60'0 0.0
2017-Jul-03 13:30S 29°53' E 030°60'0 0.0
2017-Jul-03 13:00S 29°53' E 030°60'0 0.0
2017-Jul-03 12:30S 29°53' E 030°60'0 0.0
2017-Jul-03 12:00S 29°53' E 030°60'0 0.0
2017-Jul-03 11:30S 29°53' E 030°60'0 0.0
2017-Jul-03 11:00S 29°53' E 030°60'0 0.0
2017-Jul-03 10:30S 29°53' E 030°60'0 0.0
2017-Jul-03 10:00S 29°53' E 030°60'0 0.0
2017-Jul-03 09:27S 29°53' E 030°60'0 0.0
2017-Jul-03 09:00S 29°53' E 030°60'0 0.0
2017-Jul-03 08:30S 29°53' E 030°60'0 0.0
2017-Jul-03 08:00S 29°53' E 030°60'0 0.0
2017-Jul-03 07:30S 29°53' E 030°60'0 0.0
2017-Jul-03 07:00S 29°53' E 030°60'0 0.0
2017-Jul-03 06:30S 29°53' E 030°60'0 0.0
2017-Jul-03 06:00S 29°53' E 030°60'0 0.0
2017-Jul-03 05:30S 29°53' E 030°60'0 0.0
2017-Jul-03 05:00S 29°53' E 030°60'0 0.0
2017-Jul-03 04:30S 29°53' E 030°60'0 0.0
2017-Jul-03 04:00S 29°53' E 030°60'0 0.0
2017-Jul-03 03:30S 29°53' E 030°60'0 0.0
2017-Jul-03 02:51S 29°53' E 030°60'0 0.0
2017-Jul-03 02:30S 29°53' E 030°60'0 0.0
2017-Jul-03 02:00S 29°53' E 030°60'0 0.0
2017-Jul-03 01:30S 29°53' E 030°60'0 0.0
2017-Jul-03 01:00S 29°53' E 030°60'0 0.0
2017-Jul-03 00:30S 29°53' E 030°60'0 0.0
2017-Jul-03 00:00S 29°53' E 030°60'0 0.0
2017-Jul-02 23:30S 29°53' E 030°60'0 0.0
2017-Jul-02 23:00S 29°53' E 030°60'0 0.0
2017-Jul-02 22:30S 29°53' E 030°60'0 0.0
2017-Jul-02 22:00S 29°53' E 030°60'0 0.0
2017-Jul-02 21:30S 29°53' E 030°60'0 0.0
2017-Jul-02 21:00S 29°53' E 030°60'0 0.0
2017-Jul-02 20:27S 29°53' E 030°60'0 0.0
2017-Jul-02 20:00S 29°53' E 030°60'0 0.0
2017-Jul-02 19:24S 29°53' E 030°60'0 0.0
2017-Jul-02 19:00S 29°53' E 030°60'0 0.0
2017-Jul-02 18:30S 29°53' E 030°60'0 0.0
2017-Jul-02 18:00S 29°53' E 030°60'0 0.0
2017-Jul-02 17:30S 29°53' E 030°60'0 0.0
2017-Jul-02 17:00S 29°53' E 030°60'0 0.0
2017-Jul-02 16:30S 29°53' E 030°60'0 0.0
2017-Jul-02 16:00S 29°53' E 030°60'0 0.0
2017-Jul-02 15:30S 29°53' E 030°60'0 0.0
2017-Jul-02 15:00S 29°53' E 030°60'0 0.0
2017-Jul-02 14:00S 29°53' E 030°60'0 0.0
2017-Jul-02 13:30S 29°53' E 030°60'0 0.0
2017-Jul-02 13:00S 29°53' E 030°60'0 0.0
2017-Jul-02 12:30S 29°53' E 030°60'0 0.0
2017-Jul-02 12:00S 29°53' E 030°60'0 0.0
2017-Jul-02 11:27S 29°53' E 030°60'0 0.0
2017-Jul-02 11:00S 29°53' E 030°60'0 0.0
2017-Jul-02 10:30S 29°53' E 030°60'0 0.0
2017-Jul-02 09:57S 29°53' E 030°60'0 0.0
2017-Jul-02 09:30S 29°53' E 030°60'0 0.0
2017-Jul-02 09:00S 29°53' E 030°60'0 0.0
2017-Jul-02 08:30S 29°53' E 030°60'0 0.0
2017-Jul-02 07:57S 29°53' E 030°60'0 0.0
2017-Jul-02 07:30S 29°53' E 030°60'0 0.0
2017-Jul-02 07:00S 29°53' E 030°60'0 0.0
2017-Jul-02 06:27S 29°53' E 030°60'0 0.0
2017-Jul-02 06:00S 29°53' E 030°60'0 0.0
2017-Jul-02 05:30S 29°53' E 030°60'0 0.0
2017-Jul-02 05:00S 29°53' E 030°60'0 0.0
2017-Jul-02 04:30S 29°53' E 030°60'0 0.0
2017-Jul-02 04:00S 29°53' E 030°60'0 0.0
2017-Jul-02 03:27S 29°53' E 030°60'0 0.0
2017-Jul-02 03:00S 29°53' E 030°60'0 0.0
2017-Jul-02 02:30S 29°53' E 030°60'0 0.0
2017-Jul-02 01:57S 29°53' E 030°60'0 0.0
2017-Jul-02 01:30S 29°53' E 030°60'0 0.0
2017-Jul-02 00:57S 29°53' E 030°60'0 0.0
2017-Jul-02 00:30S 29°53' E 030°60'0 0.0
2017-Jul-02 00:00S 29°53' E 030°60'0 0.0
2017-Jul-01 23:30S 29°53' E 030°60'0 0.0
2017-Jul-01 23:00S 29°53' E 030°60'0 0.0
2017-Jul-01 22:30S 29°53' E 030°60'0 0.0
2017-Jul-01 22:00S 29°53' E 030°60'0 0.0
2017-Jul-01 21:27S 29°53' E 030°60'0 0.0
2017-Jul-01 21:00S 29°53' E 030°60'0 0.0
2017-Jul-01 20:30S 29°53' E 030°60'0 0.0
2017-Jul-01 20:00S 29°53' E 030°60'0 0.0
2017-Jul-01 19:27S 29°53' E 030°60'0 0.0
2017-Jul-01 18:57S 29°53' E 030°60'0 0.0
2017-Jul-01 18:30S 29°53' E 030°60'0 0.0
2017-Jul-01 17:57S 29°53' E 030°60'0 0.0
2017-Jul-01 17:30S 29°53' E 030°60'0 0.0
2017-Jul-01 17:00S 29°53' E 030°60'0 0.0
2017-Jul-01 16:30S 29°53' E 030°60'0 0.0
2017-Jul-01 16:00S 29°53' E 030°60'0 0.0
2017-Jul-01 15:30S 29°53' E 030°60'0 0.0
2017-Jul-01 15:00S 29°53' E 030°60'0 0.0
2017-Jul-01 14:00S 29°53' E 030°60'0 0.0
2017-Jul-01 13:30S 29°53' E 030°60'0 0.0
2017-Jul-01 13:00S 29°53' E 030°60'0 0.0
2017-Jul-01 12:30S 29°53' E 030°60'0 0.0
2017-Jul-01 12:00S 29°53' E 030°60'0 0.0
2017-Jul-01 11:30S 29°53' E 030°60'0 0.0
2017-Jul-01 10:57S 29°53' E 030°60'0 0.0
2017-Jul-01 10:30S 29°53' E 030°60'0 0.0
2017-Jul-01 09:57S 29°53' E 030°60'0 0.0
2017-Jul-01 09:30S 29°53' E 030°60'0 0.0
2017-Jul-01 09:00S 29°53' E 030°60'0 0.0
2017-Jul-01 08:30S 29°53' E 030°60'0 0.0
2017-Jul-01 08:00S 29°53' E 030°60'0 0.0
2017-Jul-01 07:30S 29°53' E 030°60'0 0.0
2017-Jul-01 07:00S 29°53' E 030°60'0 0.0
2017-Jul-01 05:54S 29°53' E 030°60'0 0.0
2017-Jul-01 05:30S 29°53' E 030°60'0 0.0
2017-Jul-01 05:00S 29°53' E 030°60'0 0.0
2017-Jul-01 04:30S 29°53' E 030°60'0 0.0
2017-Jul-01 04:00S 29°53' E 030°60'0 0.0
2017-Jul-01 03:30S 29°53' E 030°60'0 0.0
2017-Jul-01 03:00S 29°53' E 030°60'0 0.0
2017-Jul-01 02:27S 29°53' E 030°60'0 0.0
2017-Jul-01 01:57S 29°53' E 030°60'0 0.0
2017-Jul-01 01:30S 29°53' E 030°60'0 0.0
2017-Jul-01 01:00S 29°53' E 030°60'0 0.0
2017-Jul-01 00:27S 29°53' E 030°60'0 0.0
2017-Jul-01 00:00S 29°53' E 030°60'0 0.0
2017-Jun-30 23:30S 29°53' E 030°60'0 0.0
2017-Jun-30 23:00S 29°53' E 030°60'0 0.0
2017-Jun-30 22:27S 29°53' E 030°60'0 0.0
2017-Jun-30 22:00S 29°53' E 030°60'0 0.0
2017-Jun-30 21:30S 29°53' E 030°60'0 0.0
2017-Jun-30 21:00S 29°53' E 030°60'0 0.0
2017-Jun-30 20:30S 29°53' E 030°60'0 0.0
2017-Jun-30 20:00S 29°53' E 030°60'0 0.0
2017-Jun-30 19:30S 29°53' E 030°60'0 0.0
2017-Jun-30 18:57S 29°53' E 030°60'0 0.0
2017-Jun-30 18:30S 29°53' E 030°60'0 0.0
2017-Jun-30 18:00S 29°53' E 030°60'0 0.0
2017-Jun-30 17:30S 29°53' E 030°60'0 0.0
2017-Jun-30 17:00S 29°53' E 030°60'0 0.0
2017-Jun-30 16:30S 29°53' E 030°60'0 0.0
2017-Jun-30 16:00S 29°53' E 030°60'0 0.0
2017-Jun-30 15:30S 29°53' E 030°60'0 0.0
2017-Jun-30 15:00S 29°53' E 030°60'0 0.0
2017-Jun-30 14:24S 29°53' E 030°60'0 0.0
2017-Jun-30 14:00S 29°53' E 030°60'0 0.0
2017-Jun-30 13:27S 29°53' E 030°60'0 0.0
2017-Jun-30 13:00S 29°53' E 030°60'0 0.0
2017-Jun-30 12:30S 29°53' E 030°60'0 0.0
2017-Jun-30 12:00S 29°53' E 030°60'0 0.0
2017-Jun-30 11:30S 29°53' E 030°60'0 0.0
2017-Jun-30 11:00S 29°53' E 030°60'0 0.0
2017-Jun-30 10:30S 29°53' E 030°60'0 0.0
2017-Jun-30 10:00S 29°53' E 030°60'0 0.0
2017-Jun-30 09:30S 29°53' E 030°60'0 0.0
2017-Jun-30 09:00S 29°53' E 030°60'0 0.0
2017-Jun-30 08:27S 29°53' E 030°60'0 0.0
2017-Jun-30 08:00S 29°53' E 030°60'0 0.0
2017-Jun-30 07:30S 29°53' E 030°60'0 0.0
2017-Jun-30 07:00S 29°53' E 030°60'0 0.0
2017-Jun-30 06:30S 29°53' E 030°60'0 0.0
2017-Jun-30 06:00S 29°53' E 030°60'0 0.0
2017-Jun-30 05:30S 29°53' E 030°60'0 0.0
2017-Jun-30 05:00S 29°53' E 030°60'0 0.0
2017-Jun-30 04:30S 29°53' E 030°60'0 0.0
2017-Jun-30 04:00S 29°53' E 030°60'0 0.0
2017-Jun-30 03:30S 29°53' E 030°60'0 0.0
2017-Jun-30 02:57S 29°53' E 030°60'0 0.0
2017-Jun-30 02:30S 29°53' E 030°60'0 0.0
2017-Jun-30 02:00S 29°53' E 030°60'0 0.0
2017-Jun-30 01:30S 29°53' E 030°60'0 0.0
2017-Jun-30 01:00S 29°53' E 030°60'0 0.0
2017-Jun-30 00:30S 29°53' E 030°60'0 0.0
2017-Jun-29 23:54S 29°53' E 030°60'0 0.0
2017-Jun-29 23:30S 29°53' E 030°60'0 0.0
2017-Jun-29 23:00S 29°53' E 030°60'0 0.0
2017-Jun-29 22:30S 29°53' E 030°60'0 0.0
2017-Jun-29 22:00S 29°53' E 030°60'0 0.0
2017-Jun-29 21:30S 29°53' E 030°60'0 0.0
2017-Jun-29 21:00S 29°53' E 030°60'0 0.0
2017-Jun-29 20:24S 29°53' E 030°60'0 0.0
2017-Jun-29 20:00S 29°53' E 030°60'0 0.0
2017-Jun-29 19:30S 29°53' E 030°60'0 0.0
2017-Jun-29 18:57S 29°53' E 030°60'0 0.0
2017-Jun-29 18:30S 29°53' E 030°60'0 0.0
2017-Jun-29 18:00S 29°53' E 030°60'0 0.0
2017-Jun-29 17:30S 29°53' E 030°60'0 0.0
2017-Jun-29 17:00S 29°53' E 030°60'0 0.0
2017-Jun-29 16:30S 29°53' E 030°60'0 0.0
2017-Jun-29 16:00S 29°53' E 030°60'0 0.0
2017-Jun-29 15:30S 29°53' E 030°60'0 0.0
2017-Jun-29 15:00S 29°53' E 030°60'0 0.0
2017-Jun-29 14:30S 29°53' E 030°60'0 0.0
2017-Jun-29 13:30S 29°53' E 030°60'0 0.0
2017-Jun-29 13:00S 29°53' E 030°60'0 0.0
2017-Jun-29 12:27S 29°53' E 030°60'0 0.0
2017-Jun-29 12:00S 29°53' E 030°60'0 0.0
2017-Jun-29 11:30S 29°53' E 030°60'0 0.0
2017-Jun-29 11:00S 29°53' E 030°60'0 0.0
2017-Jun-29 10:30S 29°53' E 030°60'0 0.0
2017-Jun-29 10:00S 29°53' E 030°60'0 0.0
2017-Jun-29 09:30S 29°53' E 030°60'0 0.0
2017-Jun-29 08:57S 29°53' E 030°60'0 0.0
2017-Jun-29 08:30S 29°53' E 030°60'0 0.0
2017-Jun-29 08:00S 29°53' E 030°60'0 0.0
2017-Jun-29 07:30S 29°53' E 030°60'0 0.0
2017-Jun-29 07:00S 29°53' E 030°60'0 0.0
2017-Jun-29 06:30S 29°53' E 030°60'0 0.0
2017-Jun-29 06:00S 29°53' E 030°60'0 0.0
2017-Jun-29 05:30S 29°53' E 030°60'0 0.0
2017-Jun-29 05:00S 29°53' E 030°60'0 0.0
2017-Jun-29 04:30S 29°53' E 030°60'0 0.0
2017-Jun-29 04:00S 29°53' E 030°60'0 0.0
2017-Jun-29 03:30S 29°53' E 030°60'0 0.0
2017-Jun-29 03:00S 29°53' E 030°60'0 0.0
2017-Jun-29 02:27S 29°53' E 030°60'0 0.0
2017-Jun-29 02:00S 29°53' E 030°60'0 0.0
2017-Jun-29 01:30S 29°53' E 030°60'0 0.0
2017-Jun-29 01:00S 29°53' E 030°60'0 0.0
2017-Jun-29 00:30S 29°53' E 030°60'0 0.0
2017-Jun-29 00:00S 29°53' E 030°60'0 0.0
2017-Jun-28 23:30S 29°53' E 030°60'0 0.0
2017-Jun-28 23:00S 29°53' E 030°60'0 0.0
2017-Jun-28 22:30S 29°53' E 030°60'0 0.0
2017-Jun-28 22:00S 29°53' E 030°60'0 0.0
2017-Jun-28 21:30S 29°53' E 030°60'0 0.0
2017-Jun-28 21:00S 29°53' E 030°60'0 0.0
2017-Jun-28 20:30S 29°53' E 030°60'0 0.0
2017-Jun-28 19:57S 29°53' E 030°60'0 0.0
2017-Jun-28 19:30S 29°53' E 030°60'0 0.0
2017-Jun-28 19:00S 29°53' E 030°60'0 0.0
2017-Jun-28 18:30S 29°53' E 030°60'0 0.0
2017-Jun-28 17:57S 29°53' E 030°60'0 0.0
2017-Jun-28 17:27S 29°53' E 030°60'0 0.0
2017-Jun-28 17:00S 29°53' E 030°60'0 0.0
2017-Jun-28 16:30S 29°53' E 030°60'0 0.0
2017-Jun-28 16:00S 29°53' E 030°60'0 0.0
2017-Jun-28 15:28S 29°53' E 030°60'0 0.0
2017-Jun-28 15:00S 29°53' E 030°60'0 0.0
2017-Jun-28 14:00S 29°53' E 030°60'0 0.0
2017-Jun-28 13:30S 29°53' E 030°60'0 0.0
2017-Jun-28 13:00S 29°53' E 030°60'0 0.0
2017-Jun-28 12:30S 29°53' E 030°60'0 0.0
2017-Jun-28 12:00S 29°53' E 030°60'0 0.0
2017-Jun-28 11:30S 29°53' E 030°60'0 0.0
2017-Jun-28 11:00S 29°53' E 030°60'0 0.0
2017-Jun-28 10:30S 29°53' E 030°60'0 0.0
2017-Jun-28 09:57S 29°53' E 030°60'0 0.0
2017-Jun-28 09:30S 29°53' E 030°60'0 0.0
2017-Jun-28 09:00S 29°53' E 030°60'0 0.0
2017-Jun-28 08:30S 29°53' E 030°60'0 0.0
2017-Jun-28 08:00S 29°53' E 030°60'0 0.0
2017-Jun-28 07:30S 29°53' E 030°60'0 0.0
2017-Jun-28 07:00S 29°53' E 030°60'0 0.0
2017-Jun-28 06:30S 29°53' E 030°60'0 0.0
2017-Jun-28 06:00S 29°53' E 030°60'0 0.0
2017-Jun-28 05:30S 29°53' E 030°60'0 0.0
2017-Jun-28 05:00S 29°53' E 030°60'0 0.0
2017-Jun-28 04:30S 29°53' E 030°60'  

Dump ship's entire track history